Time;durP1;ratioP1;P1;durP2;ratioP2;P2;SDS_P1;SDS_P2;PMS_P1;PMS_P2;Temp;Humidity;BMP_temperature;BMP_pressure;BME280_temperature;BME280_humidity;BME280_pressure;Samples;Min_cycle;Max_cycle;Signal;HPM_P1;HPM_P2
2022/12/18 00:01:37;;;;;;;73.82;30.58;;;-2.70;99.90;;;;;;5080934;28;20039;-72
2022/12/18 00:04:05;;;;;;;76.20;30.48;;;-2.80;99.90;;;;;;5098301;28;20062;-71
2022/12/18 00:06:32;;;;;;;77.65;32.08;;;-2.80;99.90;;;;;;5098125;28;20094;-70
2022/12/18 00:09:00;;;;;;;77.97;31.52;;;-2.80;99.90;;;;;;5097909;28;20032;-71
2022/12/18 00:11:28;;;;;;;77.22;31.73;;;-2.90;99.90;;;;;;5096828;28;20111;-71
2022/12/18 00:13:56;;;;;;;87.55;32.60;;;-3.00;99.90;;;;;;5096923;28;20035;-70
2022/12/18 00:16:24;;;;;;;87.53;32.63;;;-3.00;99.90;;;;;;5098118;28;20043;-70
2022/12/18 00:18:52;;;;;;;74.88;31.35;;;-3.10;99.90;;;;;;5098812;28;20054;-71
2022/12/18 00:21:19;;;;;;;80.93;30.95;;;-3.10;99.90;;;;;;5098205;28;20046;-71
2022/12/18 00:23:46;;;;;;;80.88;32.00;;;-3.10;99.90;;;;;;5082086;28;20402;-70
2022/12/18 00:26:15;;;;;;;80.35;31.00;;;-3.10;99.90;;;;;;5082424;28;20039;-70
2022/12/18 00:28:41;;;;;;;78.25;31.92;;;-3.20;99.90;;;;;;5097485;28;20047;-70
2022/12/18 00:31:12;;;;;;;81.78;31.67;;;-3.20;99.90;;;;;;5098366;28;20391;-70
2022/12/18 00:33:38;;;;;;;77.73;31.70;;;-3.20;99.90;;;;;;5099616;28;20039;-70
2022/12/18 00:36:07;;;;;;;74.35;31.45;;;-3.20;99.90;;;;;;5098757;28;20039;-70
2022/12/18 00:38:33;;;;;;;76.45;31.77;;;-3.20;99.90;;;;;;5082067;28;20016;-73
2022/12/18 00:40:59;;;;;;;78.35;32.30;;;-3.20;99.90;;;;;;5100159;28;20035;-73
2022/12/18 00:43:25;;;;;;;67.70;29.50;;;-3.20;99.90;;;;;;5065156;28;20043;-71
2022/12/18 00:45:52;;;;;;;77.88;30.90;;;-3.10;99.90;;;;;;5080312;28;20403;-73
2022/12/18 00:48:18;;;;;;;79.03;31.75;;;-3.10;99.90;;;;;;5097789;28;20124;-71
2022/12/18 00:50:44;;;;;;;78.07;31.15;;;-3.20;99.90;;;;;;5098507;28;20351;-71
2022/12/18 00:53:10;;;;;;;80.82;32.10;;;-3.20;99.90;;;;;;5081644;28;20280;-72
2022/12/18 00:55:39;;;;;;;77.72;33.85;;;-3.20;99.90;;;;;;5098702;28;20391;-73
2022/12/18 00:58:04;;;;;;;75.00;30.90;;;-3.20;99.90;;;;;;5099651;28;20307;-72
2022/12/18 01:00:30;;;;;;;76.53;31.73;;;-3.30;99.90;;;;;;5098596;28;20036;-71
2022/12/18 01:02:56;;;;;;;70.03;29.42;;;-3.30;99.90;;;;;;5079774;28;20462;-73
2022/12/18 01:05:23;;;;;;;77.90;30.75;;;-3.20;99.90;;;;;;5096791;28;20028;-72
2022/12/18 01:07:50;;;;;;;75.68;31.13;;;-3.30;99.90;;;;;;5101520;28;20117;-71
2022/12/18 01:10:17;;;;;;;78.00;31.38;;;-3.40;99.90;;;;;;5102874;28;20080;-72
2022/12/18 01:12:42;;;;;;;79.53;31.63;;;-3.30;99.90;;;;;;5084665;28;20126;-70
2022/12/18 01:15:11;;;;;;;84.13;32.05;;;-3.40;99.90;;;;;;5101493;28;20043;-71
2022/12/18 01:17:37;;;;;;;75.40;30.45;;;-3.50;99.90;;;;;;5084228;28;20181;-70
2022/12/18 01:20:03;;;;;;;77.35;30.95;;;-3.50;99.90;;;;;;5100318;28;20070;-71
2022/12/18 01:22:29;;;;;;;74.03;31.15;;;-3.40;99.90;;;;;;5100412;28;20036;-71
2022/12/18 01:24:55;;;;;;;70.20;29.90;;;-3.40;99.90;;;;;;5068194;28;20051;-71
2022/12/18 01:27:22;;;;;;;80.13;29.13;;;-3.40;99.90;;;;;;5102268;28;20028;-70
2022/12/18 01:29:49;;;;;;;72.72;30.67;;;-3.50;99.90;;;;;;5101713;28;20418;-71
2022/12/18 01:32:15;;;;;;;73.45;29.85;;;-3.50;99.90;;;;;;5102070;28;20027;-71
2022/12/18 01:34:41;;;;;;;74.85;28.90;;;-3.40;99.90;;;;;;5099935;28;20357;-70
2022/12/18 01:37:06;;;;;;;74.05;29.60;;;-3.40;99.90;;;;;;5101240;28;20034;-71
2022/12/18 01:39:33;;;;;;;79.07;30.83;;;-3.40;99.90;;;;;;5102489;28;20024;-70
2022/12/18 01:42:02;;;;;;;80.53;31.48;;;-3.50;99.90;;;;;;5101712;28;20041;-70
2022/12/18 01:44:48;;;;;;;69.10;29.45;;;-3.50;99.90;;;;;;5084615;28;20053;-70
2022/12/18 01:47:24;;;;;;;71.18;29.13;;;-3.60;99.90;;;;;;5100817;28;20118;-70
2022/12/18 01:49:51;;;;;;;68.90;28.10;;;-3.60;99.90;;;;;;5101279;28;20465;-70
2022/12/18 01:52:18;;;;;;;69.45;29.48;;;-3.60;99.90;;;;;;5099501;28;20043;-70
2022/12/18 01:54:45;;;;;;;79.43;30.15;;;-3.80;99.90;;;;;;5099918;28;20023;-70
2022/12/18 01:57:11;;;;;;;78.90;30.42;;;-3.80;99.90;;;;;;5100020;28;20020;-70
2022/12/18 01:59:39;;;;;;;79.05;30.85;;;-3.70;99.90;;;;;;5100870;28;20028;-69
2022/12/18 02:02:06;;;;;;;73.40;30.17;;;-3.70;99.90;;;;;;5100775;28;20400;-70
2022/12/18 02:04:31;;;;;;;71.43;29.23;;;-3.70;99.90;;;;;;5100548;28;20486;-69
2022/12/18 02:07:30;;;;;;;71.70;27.95;;;-3.80;99.90;;;;;;5100360;28;20072;-70
2022/12/18 02:10:07;;;;;;;63.92;27.45;;;-3.90;99.90;;;;;;5049323;28;20327;-70
2022/12/18 02:12:48;;;;;;;74.13;28.17;;;-3.90;99.90;;;;;;5100606;28;20028;-71
2022/12/18 02:15:43;;;;;;;63.20;27.95;;;-3.90;99.90;;;;;;5100903;28;20024;-70
2022/12/18 02:18:18;;;;;;;71.15;29.38;;;-3.80;99.90;;;;;;5101610;28;20024;-70
2022/12/18 02:20:54;;;;;;;64.40;28.95;;;-3.80;99.90;;;;;;5101042;28;20060;-70
2022/12/18 02:23:47;;;;;;;67.85;28.00;;;-3.80;99.90;;;;;;5102498;28;20020;-70
2022/12/18 02:26:27;;;;;;;59.58;27.25;;;-3.70;99.90;;;;;;5101000;28;20391;-71
2022/12/18 02:29:04;;;;;;;65.38;26.90;;;-3.70;99.90;;;;;;5083340;28;20039;-70
2022/12/18 02:31:38;;;;;;;64.18;27.05;;;-3.70;99.90;;;;;;5101844;28;20032;-70
2022/12/18 02:34:08;;;;;;;62.70;26.40;;;-3.70;99.90;;;;;;5101180;28;20085;-71
2022/12/18 02:36:40;;;;;;;66.90;28.75;;;-3.70;99.90;;;;;;5100708;28;20032;-72
2022/12/18 02:39:10;;;;;;;66.07;28.27;;;-3.60;99.90;;;;;;5100992;28;20035;-71
2022/12/18 02:41:38;;;;;;;;;;;-3.70;99.90;;;;;;5099808;28;20097;-70
2022/12/18 02:44:09;;;;;;;63.65;26.25;;;-3.80;99.90;;;;;;5099621;28;19912;-70
2022/12/18 02:46:46;;;;;;;62.60;25.67;;;-3.80;99.90;;;;;;5099883;28;20111;-71
2022/12/18 02:49:27;;;;;;;62.60;24.15;;;-3.80;99.90;;;;;;5082914;28;20063;-71
2022/12/18 02:52:31;;;;;;;64.75;24.50;;;-3.80;99.90;;;;;;5099485;28;20098;-71
2022/12/18 02:55:22;;;;;;;54.40;24.40;;;-3.80;99.90;;;;;;5100108;28;20038;-70
2022/12/18 02:58:16;;;;;;;57.97;23.65;;;-3.80;99.90;;;;;;5086016;28;20067;-69
2022/12/18 03:01:09;;;;;;;57.67;24.40;;;-3.80;99.90;;;;;;5098148;28;20157;-69
2022/12/18 03:03:42;;;;;;;64.28;24.42;;;-3.80;99.90;;;;;;5085356;28;20105;-70
2022/12/18 03:06:19;;;;;;;55.30;24.02;;;-3.80;99.90;;;;;;5098408;28;20039;-70
2022/12/18 03:08:51;;;;;;;54.28;23.27;;;-3.70;99.90;;;;;;5098600;28;20043;-70
2022/12/18 03:12:22;;;;;;;45.00;19.55;;;-3.70;99.90;;;;;;5098694;28;20024;-70
2022/12/18 03:14:07;;;;;;;56.08;24.60;;;-3.70;99.90;;;;;;5098202;28;20109;-71
2022/12/18 03:16:35;;;;;;;54.05;23.52;;;-3.80;99.90;;;;;;5097812;28;20071;-70
2022/12/18 03:19:14;;;;;;;53.83;23.08;;;-3.80;99.90;;;;;;5099059;28;20027;-70
2022/12/18 03:21:47;;;;;;;54.97;22.90;;;-3.90;99.90;;;;;;5098984;28;20020;-70
2022/12/18 03:24:16;;;;;;;53.38;22.35;;;-3.90;99.90;;;;;;5098645;28;20100;-70
2022/12/18 03:26:46;;;;;;;54.30;23.88;;;-3.90;99.90;;;;;;5099419;28;20024;-70
2022/12/18 03:29:28;;;;;;;54.97;24.05;;;-4.00;99.90;;;;;;5081051;28;20107;-70
2022/12/18 03:32:05;;;;;;;48.78;20.98;;;-3.90;99.90;;;;;;5098344;28;20410;-70
2022/12/18 03:34:36;;;;;;;46.92;21.92;;;-3.90;99.90;;;;;;5097852;28;20032;-70
2022/12/18 03:37:06;;;;;;;51.58;21.65;;;-4.00;99.90;;;;;;5097888;28;20093;-70
2022/12/18 03:39:34;;;;;;;54.47;23.27;;;-4.00;99.90;;;;;;5081401;28;20039;-70
2022/12/18 03:42:15;;;;;;;51.55;22.98;;;-4.00;99.90;;;;;;5098587;28;20403;-70
2022/12/18 03:45:22;;;;;;;47.92;20.88;;;-4.00;99.90;;;;;;5097729;28;20326;-71
2022/12/18 03:48:15;;;;;;;45.38;20.40;;;-4.00;99.90;;;;;;5080732;28;20123;-71
2022/12/18 03:51:10;;;;;;;53.65;21.23;;;-4.00;99.90;;;;;;5097314;28;20039;-70
2022/12/18 03:53:47;;;;;;;46.08;20.75;;;-4.00;99.90;;;;;;5094928;28;20098;-70
2022/12/18 03:56:15;;;;;;;46.97;21.58;;;-4.10;99.90;;;;;;5097621;28;20043;-71
2022/12/18 03:58:44;;;;;;;48.25;21.50;;;-4.00;99.90;;;;;;5098692;28;20028;-70
2022/12/18 04:01:33;;;;;;;51.75;22.38;;;-4.00;99.90;;;;;;5097679;28;20122;-70
2022/12/18 04:04:01;;;;;;;48.55;20.98;;;-4.10;99.90;;;;;;5097198;28;20020;-71
2022/12/18 04:06:30;;;;;;;50.75;22.63;;;-4.00;99.90;;;;;;5080403;28;20067;-70
2022/12/18 04:08:58;;;;;;;46.65;20.98;;;-4.00;99.90;;;;;;5097207;28;20028;-71
2022/12/18 04:11:25;;;;;;;48.38;22.70;;;-4.00;99.90;;;;;;5097233;28;20036;-71
2022/12/18 04:13:57;;;;;;;49.33;21.95;;;-4.00;99.90;;;;;;5097185;28;20040;-70
2022/12/18 04:16:24;;;;;;;48.90;20.23;;;-4.00;99.90;;;;;;5080742;28;20088;-70
2022/12/18 04:18:54;;;;;;;50.50;21.75;;;-3.90;99.90;;;;;;5097079;28;20032;-70
2022/12/18 04:21:22;;;;;;;46.58;20.17;;;-3.90;99.90;;;;;;5096635;28;20035;-71
2022/12/18 04:23:49;;;;;;;48.92;21.25;;;-4.00;99.90;;;;;;5096635;28;20118;-70
2022/12/18 04:26:16;;;;;;;46.35;20.25;;;-4.10;99.90;;;;;;5096818;28;20032;-70
2022/12/18 04:28:54;;;;;;;48.35;20.92;;;-4.20;99.90;;;;;;5081642;28;20119;-70
2022/12/18 04:31:21;;;;;;;43.30;19.73;;;-4.20;99.90;;;;;;5096800;28;20093;-71
2022/12/18 04:33:46;;;;;;;47.53;20.88;;;-4.20;99.90;;;;;;5096996;28;20093;-70
2022/12/18 04:36:13;;;;;;;43.38;19.80;;;-4.20;99.90;;;;;;5096631;28;20081;-71
2022/12/18 04:38:39;;;;;;;46.85;19.98;;;-4.30;99.90;;;;;;5079790;28;20047;-70
2022/12/18 04:41:09;;;;;;;42.20;19.00;;;-4.30;99.90;;;;;;5079475;28;20118;-70
2022/12/18 04:43:36;;;;;;;40.08;19.38;;;-4.30;99.90;;;;;;5096548;28;20024;-70
2022/12/18 04:46:06;;;;;;;39.63;18.27;;;-4.30;99.90;;;;;;5097298;28;20036;-71
2022/12/18 04:48:33;;;;;;;41.65;18.27;;;-4.30;99.90;;;;;;5097336;28;20024;-70
2022/12/18 04:50:58;;;;;;;38.72;17.30;;;-4.30;99.90;;;;;;5097573;28;20036;-71
2022/12/18 04:53:25;;;;;;;37.35;18.02;;;-4.30;99.90;;;;;;5097358;28;20032;-71
2022/12/18 04:55:50;;;;;;;44.55;18.90;;;-4.30;99.90;;;;;;5097062;28;20081;-71
2022/12/18 04:58:16;;;;;;;38.40;17.92;;;-4.30;99.90;;;;;;5097051;28;20397;-71
2022/12/18 05:00:42;;;;;;;40.05;17.75;;;-4.20;99.90;;;;;;5097588;28;20082;-71
2022/12/18 05:03:08;;;;;;;36.85;17.13;;;-4.30;99.90;;;;;;5097189;28;20048;-70
2022/12/18 05:05:35;;;;;;;38.38;18.50;;;-4.30;99.90;;;;;;5096191;28;20029;-70
2022/12/18 05:08:01;;;;;;;39.38;18.38;;;-4.20;99.90;;;;;;5097077;28;20059;-70
2022/12/18 05:10:27;;;;;;;34.83;17.88;;;-4.10;99.90;;;;;;5096942;28;20403;-70
2022/12/18 05:12:58;;;;;;;37.20;17.00;;;-4.20;99.90;;;;;;5079270;28;20123;-71
2022/12/18 05:15:32;;;;;;;37.83;17.75;;;-4.20;99.90;;;;;;5096243;28;20059;-70
2022/12/18 05:17:59;;;;;;;41.25;18.02;;;-4.30;99.90;;;;;;5096922;28;20038;-71
2022/12/18 05:20:25;;;;;;;37.25;17.30;;;-4.30;99.90;;;;;;5096232;28;20024;-70
2022/12/18 05:22:51;;;;;;;35.55;16.92;;;-4.40;99.90;;;;;;5096935;28;20273;-70
2022/12/18 05:25:18;;;;;;;34.10;17.52;;;-4.30;99.90;;;;;;5096831;28;20020;-70
2022/12/18 05:27:44;;;;;;;35.72;16.25;;;-4.30;99.90;;;;;;5095821;28;20020;-70
2022/12/18 05:30:11;;;;;;;38.95;17.45;;;-4.30;99.90;;;;;;5097547;28;20028;-72
2022/12/18 05:32:37;;;;;;;37.65;17.05;;;-4.30;99.90;;;;;;5097048;28;20059;-70
2022/12/18 05:35:05;;;;;;;37.03;16.85;;;-4.20;99.90;;;;;;5097510;28;20106;-71
2022/12/18 05:37:31;;;;;;;38.85;17.45;;;-4.30;99.90;;;;;;5096780;28;20407;-72
2022/12/18 05:39:57;;;;;;;35.88;16.75;;;-4.20;99.90;;;;;;5097540;28;20039;-71
2022/12/18 05:42:22;;;;;;;36.92;16.95;;;-4.30;99.90;;;;;;5096613;28;20036;-71
2022/12/18 05:44:48;;;;;;;37.13;16.90;;;-4.30;99.90;;;;;;5096058;28;20322;-70
2022/12/18 05:47:14;;;;;;;36.95;16.58;;;-4.30;99.90;;;;;;5079053;28;20035;-70
2022/12/18 05:49:40;;;;;;;35.85;16.95;;;-4.30;99.90;;;;;;5095773;28;20067;-70
2022/12/18 05:52:05;;;;;;;32.30;15.45;;;-4.40;99.90;;;;;;5097280;28;20304;-71
2022/12/18 05:54:31;;;;;;;34.72;16.23;;;-4.50;99.90;;;;;;5099650;28;20036;-70
2022/12/18 05:56:58;;;;;;;36.25;15.80;;;-4.50;99.90;;;;;;5100450;28;20024;-71
2022/12/18 05:59:24;;;;;;;31.67;15.85;;;-4.50;99.90;;;;;;5099602;28;20311;-70
2022/12/18 06:01:50;;;;;;;35.70;16.17;;;-4.60;99.90;;;;;;5082552;28;20032;-70
2022/12/18 06:04:15;;;;;;;32.85;16.02;;;-4.60;99.90;;;;;;5099503;28;20024;-70
2022/12/18 06:06:41;;;;;;;32.22;15.65;;;-4.50;99.90;;;;;;5099365;28;20044;-70
2022/12/18 06:09:09;;;;;;;32.83;14.82;;;-4.60;99.90;;;;;;5099438;28;20406;-71
2022/12/18 06:11:38;;;;;;;31.92;15.73;;;-4.50;99.90;;;;;;5100635;28;20123;-70
2022/12/18 06:14:06;;;;;;;32.95;15.85;;;-4.40;99.90;;;;;;5099072;28;20029;-71
2022/12/18 06:16:32;;;;;;;33.28;15.07;;;-4.50;99.90;;;;;;5099264;28;20396;-70
2022/12/18 06:18:59;;;;;;;35.55;16.05;;;-4.50;99.90;;;;;;5099968;28;20110;-70
2022/12/18 06:21:26;;;;;;;32.35;15.82;;;-4.50;99.90;;;;;;5082809;28;20043;-71
2022/12/18 06:23:52;;;;;;;31.85;15.30;;;-4.40;99.90;;;;;;5099877;28;20028;-70
2022/12/18 06:26:18;;;;;;;34.50;15.45;;;-4.30;99.90;;;;;;5098981;28;20119;-70
2022/12/18 06:28:44;;;;;;;33.97;15.90;;;-4.30;99.90;;;;;;5098713;28;20027;-70
2022/12/18 06:31:11;;;;;;;29.73;14.45;;;-4.30;99.90;;;;;;5098927;28;20455;-71
2022/12/18 06:33:38;;;;;;;33.17;14.93;;;-4.30;99.90;;;;;;5099519;28;20028;-71
2022/12/18 06:36:09;;;;;;;32.78;15.20;;;-4.30;99.90;;;;;;5100007;28;20093;-70
2022/12/18 06:38:38;;;;;;;33.78;15.43;;;-4.30;99.90;;;;;;5099544;28;20123;-71
2022/12/18 06:41:09;;;;;;;32.75;15.63;;;-4.30;99.90;;;;;;5098572;28;20032;-71
2022/12/18 06:43:35;;;;;;;34.25;14.57;;;-4.40;99.90;;;;;;5099288;28;20050;-71
2022/12/18 06:46:02;;;;;;;30.77;14.18;;;-4.40;99.90;;;;;;5081810;28;20028;-71
2022/12/18 06:48:28;;;;;;;29.58;14.07;;;-4.30;99.90;;;;;;5098716;28;20036;-71
2022/12/18 06:50:54;;;;;;;29.63;14.65;;;-4.20;99.90;;;;;;5099219;28;20040;-70
2022/12/18 06:53:20;;;;;;;28.13;14.07;;;-4.20;99.90;;;;;;5099090;28;20093;-71
2022/12/18 06:55:46;;;;;;;28.75;13.57;;;-4.30;99.90;;;;;;5099023;28;20044;-70
2022/12/18 06:58:11;;;;;;;28.48;12.90;;;-4.40;99.90;;;;;;5099022;28;20038;-70
2022/12/18 07:00:37;;;;;;;28.77;15.20;;;-4.40;99.90;;;;;;5098306;28;20085;-70
2022/12/18 07:03:03;;;;;;;31.52;14.68;;;-4.40;99.90;;;;;;5098117;28;20056;-70
2022/12/18 07:05:29;;;;;;;29.38;13.32;;;-4.40;99.90;;;;;;5097256;28;20043;-70
2022/12/18 07:07:55;;;;;;;27.35;13.18;;;-4.40;99.90;;;;;;5098531;28;20052;-71
2022/12/18 07:10:20;;;;;;;25.33;13.40;;;-4.40;99.90;;;;;;5098024;28;20291;-71
2022/12/18 07:12:46;;;;;;;27.95;13.32;;;-4.30;99.90;;;;;;5099317;28;20039;-70
2022/12/18 07:15:12;;;;;;;28.95;14.07;;;-4.20;99.90;;;;;;5100525;28;20024;-70
2022/12/18 07:17:38;;;;;;;30.58;14.10;;;-4.30;99.90;;;;;;5082267;28;20024;-72
2022/12/18 07:20:04;;;;;;;32.15;14.25;;;-4.30;99.90;;;;;;5099531;28;20048;-72
2022/12/18 07:22:30;;;;;;;31.23;13.70;;;-4.30;99.90;;;;;;5101715;28;20044;-71
2022/12/18 07:24:56;;;;;;;27.35;13.60;;;-4.30;99.90;;;;;;5102176;28;20103;-71
2022/12/18 07:27:22;;;;;;;27.98;14.32;;;-4.30;99.90;;;;;;5101054;28;20078;-71
2022/12/18 07:29:48;;;;;;;31.83;14.70;;;-4.40;99.90;;;;;;5101702;28;20040;-69
2022/12/18 07:32:14;;;;;;;28.55;13.75;;;-4.40;99.90;;;;;;5101286;28;20103;-71
2022/12/18 07:34:40;;;;;;;32.13;14.43;;;-4.20;99.90;;;;;;5099114;28;20104;-71
2022/12/18 07:37:06;;;;;;;26.48;13.98;;;-4.20;99.90;;;;;;5099523;28;20047;-69
2022/12/18 07:39:32;;;;;;;33.38;14.10;;;-4.20;99.90;;;;;;5099239;28;20032;-70
2022/12/18 07:44:42;;;;;;;26.55;13.60;;;-4.30;99.90;;;;;;5097505;28;20032;-70
2022/12/18 07:47:08;;;;;;;26.52;13.25;;;-4.20;99.90;;;;;;5097325;28;20043;-71
2022/12/18 07:49:34;;;;;;;30.23;13.65;;;-4.30;99.90;;;;;;5063508;28;20277;-70
2022/12/18 07:52:01;;;;;;;27.23;13.27;;;-4.30;99.90;;;;;;5097474;28;20300;-70
2022/12/18 07:54:27;;;;;;;29.05;14.07;;;-4.30;99.90;;;;;;5098944;28;20101;-70
2022/12/18 07:56:53;;;;;;;24.58;12.95;;;-4.30;99.90;;;;;;5097087;28;20028;-70
2022/12/18 07:59:19;;;;;;;27.02;13.20;;;-4.30;99.90;;;;;;5097678;28;20097;-70
2022/12/18 08:01:44;;;;;;;25.95;12.90;;;-4.30;99.90;;;;;;5080281;28;20036;-70
2022/12/18 08:04:10;;;;;;;24.65;11.63;;;-4.20;99.90;;;;;;5096997;28;20024;-70
2022/12/18 08:06:36;;;;;;;25.95;13.50;;;-4.30;99.90;;;;;;5096646;28;20400;-70
2022/12/18 08:09:02;;;;;;;29.40;13.10;;;-4.20;99.90;;;;;;5097837;28;20272;-72
2022/12/18 08:11:28;;;;;;;24.42;12.52;;;-4.20;99.90;;;;;;5099293;28;20126;-71
2022/12/18 08:13:55;;;;;;;26.20;13.02;;;-4.20;99.90;;;;;;5100088;28;20296;-71
2022/12/18 08:16:22;;;;;;;28.95;13.02;;;-4.30;99.90;;;;;;5098713;28;20376;-70
2022/12/18 08:18:48;;;;;;;30.02;12.82;;;-4.20;99.90;;;;;;5097024;28;20115;-69
2022/12/18 08:21:22;;;;;;;29.60;12.73;;;-4.10;99.90;;;;;;5097418;28;20081;-70
2022/12/18 08:23:49;;;;;;;24.02;12.38;;;-4.00;99.90;;;;;;5098092;28;20425;-70
2022/12/18 08:26:16;;;;;;;22.05;12.07;;;-3.90;99.90;;;;;;5098229;28;20299;-69
2022/12/18 08:28:42;;;;;;;22.40;11.88;;;-3.90;99.90;;;;;;5082297;28;20047;-70
2022/12/18 08:31:08;;;;;;;24.90;12.50;;;-3.90;99.90;;;;;;5100301;28;20024;-71
2022/12/18 08:33:35;;;;;;;23.25;11.77;;;-3.90;99.90;;;;;;5097506;28;20032;-70
2022/12/18 08:36:01;;;;;;;24.70;11.63;;;-3.80;99.90;;;;;;5097307;28;20047;-71
2022/12/18 08:38:27;;;;;;;23.67;11.82;;;-3.80;99.90;;;;;;5097973;28;20383;-70
2022/12/18 08:41:05;;;;;;;24.85;12.77;;;-3.60;99.90;;;;;;5097052;28;20107;-72
2022/12/18 08:46:16;;;;;;;24.05;12.27;;;-3.60;99.90;;;;;;5097788;28;20115;-70
2022/12/18 08:48:42;;;;;;;25.95;11.85;;;-3.50;99.90;;;;;;5099317;28;20119;-70
2022/12/18 08:51:09;;;;;;;20.38;11.68;;;-3.50;99.90;;;;;;5097414;28;20063;-70
2022/12/18 08:53:36;;;;;;;20.17;11.60;;;-3.30;99.90;;;;;;5098665;28;20040;-70
2022/12/18 08:56:02;;;;;;;22.00;11.75;;;-3.20;99.90;;;;;;5097959;28;20138;-69
2022/12/18 08:58:28;;;;;;;21.50;11.85;;;-3.10;99.90;;;;;;5097466;28;20055;-70
2022/12/18 09:00:59;;;;;;;23.83;11.95;;;-3.00;99.90;;;;;;5097451;28;20093;-70
2022/12/18 09:03:24;;;;;;;21.52;11.93;;;-2.80;99.90;;;;;;5096386;28;20039;-69
2022/12/18 09:05:50;;;;;;;23.85;11.73;;;-2.80;99.90;;;;;;5096229;28;20332;-70
2022/12/18 09:08:16;;;;;;;18.80;11.02;;;-2.60;99.90;;;;;;5096842;28;20044;-70
2022/12/18 09:10:47;;;;;;;23.58;11.40;;;-2.50;99.90;;;;;;5096301;28;20059;-69
2022/12/18 09:13:15;;;;;;;20.60;11.13;;;-2.40;99.90;;;;;;5096284;28;20111;-69
2022/12/18 09:15:45;;;;;;;21.90;11.55;;;-2.20;99.90;;;;;;5097152;28;20107;-70
2022/12/18 09:18:12;;;;;;;21.98;11.77;;;-2.20;99.90;;;;;;5097297;28;20328;-70
2022/12/18 09:20:38;;;;;;;21.38;11.60;;;-2.20;99.90;;;;;;5096838;28;20023;-70
2022/12/18 09:23:05;;;;;;;25.35;12.90;;;-2.20;99.90;;;;;;5096814;28;20072;-70
2022/12/18 09:25:33;;;;;;;20.45;11.00;;;-2.20;99.90;;;;;;5096876;28;20028;-70
2022/12/18 09:28:00;;;;;;;25.48;12.13;;;-2.10;99.90;;;;;;5097968;28;20394;-70
2022/12/18 09:30:26;;;;;;;23.60;10.82;;;-2.10;99.90;;;;;;5100901;28;20369;-70
2022/12/18 09:32:52;;;;;;;20.45;11.85;;;-2.00;99.90;;;;;;5100556;28;20103;-70
2022/12/18 09:35:19;;;;;;;21.63;11.68;;;-1.90;99.90;;;;;;5101075;28;20032;-69
2022/12/18 09:37:45;;;;;;;22.30;12.13;;;-1.80;99.90;;;;;;5101196;28;20387;-70
2022/12/18 09:40:19;;;;;;;18.55;10.75;;;-1.70;99.90;;;;;;5083315;28;20039;-71
2022/12/18 09:42:55;;;;;;;18.75;10.50;;;-1.50;99.90;;;;;;5100853;28;20059;-72
2022/12/18 09:45:22;;;;;;;21.20;11.13;;;-1.50;99.90;;;;;;5101796;28;20028;-69
2022/12/18 09:47:51;;;;;;;19.42;10.90;;;-1.30;99.90;;;;;;5101705;28;20323;-70
2022/12/18 09:50:39;;;;;;;16.85;10.63;;;-1.30;99.90;;;;;;5101548;28;20133;-69
2022/12/18 09:53:11;;;;;;;17.95;10.75;;;-1.20;99.90;;;;;;5103057;28;20094;-70
2022/12/18 09:55:41;;;;;;;21.70;10.80;;;-1.20;99.90;;;;;;5102395;28;20052;-71
2022/12/18 09:58:38;;;;;;;21.63;11.05;;;-1.00;99.90;;;;;;5100390;28;20434;-69
2022/12/18 10:01:11;;;;;;;23.42;10.75;;;-1.10;99.90;;;;;;5099629;28;20028;-70
2022/12/18 10:03:37;;;;;;;19.15;11.40;;;-1.10;99.90;;;;;;5082413;28;20093;-69
2022/12/18 10:06:27;;;;;;;21.65;11.85;;;-1.10;99.90;;;;;;5099489;28;20028;-69
2022/12/18 10:09:01;;;;;;;20.60;10.90;;;-1.00;99.90;;;;;;5100017;28;20047;-70
2022/12/18 10:11:38;;;;;;;17.77;10.95;;;-1.00;99.90;;;;;;5100005;28;20032;-69
2022/12/18 10:14:13;;;;;;;19.75;11.80;;;-0.80;99.90;;;;;;5099179;28;20039;-69
2022/12/18 10:16:47;;;;;;;18.70;10.73;;;-0.70;99.90;;;;;;5099104;28;20399;-68
2022/12/18 10:19:40;;;;;;;16.40;10.50;;;-0.90;99.90;;;;;;5100106;28;20342;-70
2022/12/18 10:22:39;;;;;;;20.88;10.95;;;-0.80;99.90;;;;;;5098889;28;20032;-70
2022/12/18 10:25:42;;;;;;;20.90;11.20;;;-0.70;99.90;;;;;;5099002;28;20233;-69
2022/12/18 10:28:14;;;;;;;17.20;11.15;;;-0.90;99.90;;;;;;5099517;28;20073;-69
2022/12/18 10:30:42;;;;;;;19.40;10.90;;;-0.80;99.90;;;;;;5099480;28;20107;-69
2022/12/18 10:33:20;;;;;;;19.90;11.40;;;-0.80;99.90;;;;;;5099536;28;20338;-69
2022/12/18 10:35:51;;;;;;;16.95;10.18;;;-0.70;99.90;;;;;;5098941;28;20122;-69
2022/12/18 10:38:17;;;;;;;21.33;11.23;;;-0.70;99.90;;;;;;5099389;28;20028;-69
2022/12/18 10:40:49;;;;;;;20.92;11.13;;;-0.60;99.90;;;;;;5098498;28;20028;-69
2022/12/18 10:43:19;;;;;;;20.73;10.30;;;-0.50;99.90;;;;;;5098733;28;20028;-69
2022/12/18 10:45:59;;;;;;;18.45;10.00;;;-0.40;99.90;;;;;;5099667;28;20055;-69
2022/12/18 10:48:26;;;;;;;19.38;10.73;;;-0.30;99.90;;;;;;5098533;28;20035;-69
2022/12/18 10:50:53;;;;;;;18.98;10.98;;;-0.30;99.90;;;;;;5081595;28;20024;-69
2022/12/18 10:53:26;;;;;;;17.80;10.50;;;-0.30;99.90;;;;;;5098363;28;20029;-69
2022/12/18 10:55:55;;;;;;;17.42;10.32;;;-0.20;99.90;;;;;;5099068;28;20112;-64
2022/12/18 10:58:24;;;;;;;18.48;10.68;;;-0.20;99.90;;;;;;5099007;28;20035;-69
2022/12/18 11:01:08;;;;;;;17.35;9.95;;;0.00;99.90;;;;;;5098118;28;20036;-69
2022/12/18 11:03:57;;;;;;;19.52;10.90;;;0.10;99.90;;;;;;5099036;28;20268;-69
2022/12/18 11:06:25;;;;;;;17.45;10.40;;;0.10;99.90;;;;;;5087953;28;20047;-69
2022/12/18 11:09:05;;;;;;;16.30;10.40;;;0.00;99.90;;;;;;5098808;28;20026;-69
2022/12/18 11:11:33;;;;;;;17.00;10.40;;;0.10;99.90;;;;;;5098777;28;20028;-69
2022/12/18 11:14:25;;;;;;;18.20;10.85;;;0.20;99.90;;;;;;5098639;28;20036;-68
2022/12/18 11:16:52;;;;;;;18.10;10.65;;;0.10;99.90;;;;;;5092856;28;20282;-69
2022/12/18 11:19:32;;;;;;;21.05;10.80;;;0.20;99.90;;;;;;5081822;28;20047;-69
2022/12/18 11:22:00;;;;;;;17.88;10.73;;;0.40;99.90;;;;;;5097696;28;20035;-70
2022/12/18 11:24:31;;;;;;;19.73;11.15;;;0.30;99.90;;;;;;5098491;28;20039;-70
2022/12/18 11:27:03;;;;;;;19.08;11.07;;;0.40;99.90;;;;;;5097558;28;20086;-69
2022/12/18 11:29:38;;;;;;;12.93;7.97;;;0.40;99.90;;;;;;5098557;28;20311;-69
2022/12/18 11:32:30;;;;;;;18.17;10.80;;;0.40;99.90;;;;;;5097705;28;20028;-69
2022/12/18 11:35:09;;;;;;;17.73;10.80;;;0.40;99.90;;;;;;5087056;28;20048;-69
2022/12/18 11:37:35;;;;;;;17.98;10.75;;;0.30;99.90;;;;;;5097520;28;20032;-69
2022/12/18 11:40:05;;;;;;;18.95;10.80;;;0.40;99.90;;;;;;5098320;28;20039;-70
2022/12/18 11:42:54;;;;;;;19.52;11.05;;;0.60;99.90;;;;;;5097284;28;20391;-69
2022/12/18 11:45:36;;;;;;;20.30;11.73;;;0.50;99.90;;;;;;5098690;28;20039;-69
2022/12/18 11:48:27;;;;;;;19.77;10.85;;;0.60;99.90;;;;;;5097159;28;20028;-66
2022/12/18 11:51:09;;;;;;;15.05;9.80;;;0.50;99.90;;;;;;5097377;28;20028;-70
2022/12/18 11:53:37;;;;;;;18.15;10.43;;;0.60;99.90;;;;;;5097273;28;20032;-69
2022/12/18 11:56:35;;;;;;;18.33;10.95;;;0.50;99.90;;;;;;5097290;28;20040;-67
2022/12/18 11:59:10;;;;;;;17.52;11.00;;;0.70;99.90;;;;;;5097790;28;20111;-67
2022/12/18 12:01:53;;;;;;;18.42;11.27;;;0.70;99.90;;;;;;5097125;28;20047;-69
2022/12/18 12:04:54;;;;;;;16.85;10.60;;;0.70;99.90;;;;;;5096829;28;20035;-67
2022/12/18 12:07:52;;;;;;;19.08;10.20;;;0.70;99.90;;;;;;5050415;28;20407;-68
2022/12/18 12:10:48;;;;;;;18.58;10.35;;;0.50;99.90;;;;;;5053720;28;20101;-67
2022/12/18 12:13:29;;;;;;;17.20;11.23;;;0.50;99.90;;;;;;5097674;28;20024;-67
2022/12/18 12:16:04;;;;;;;19.48;11.95;;;0.70;99.90;;;;;;5097671;28;20042;-67
2022/12/18 12:18:45;;;;;;;18.92;11.63;;;0.80;99.90;;;;;;5097657;28;20470;-67
2022/12/18 12:21:38;;;;;;;17.20;11.00;;;0.90;99.90;;;;;;5097388;28;20071;-67
2022/12/18 12:24:42;;;;;;;18.20;11.02;;;1.10;99.90;;;;;;5098090;28;20073;-67
2022/12/18 12:27:47;;;;;;;18.73;11.52;;;1.10;99.90;;;;;;5097410;28;20035;-67
2022/12/18 12:30:41;;;;;;;18.15;11.20;;;1.20;99.90;;;;;;5096752;28;20298;-67
2022/12/18 12:33:25;;;;;;;19.65;11.20;;;1.20;99.90;;;;;;5097391;28;20032;-67
2022/12/18 12:36:03;;;;;;;19.88;11.27;;;1.20;99.90;;;;;;5096601;28;20025;-66
2022/12/18 12:38:45;;;;;;;17.80;11.48;;;1.10;99.90;;;;;;5097216;28;20119;-66
2022/12/18 12:44:04;;;;;;;20.23;11.82;;;1.30;99.90;;;;;;5097180;28;20338;-66
2022/12/18 12:46:35;;;;;;;17.55;11.35;;;1.30;99.90;;;;;;5097418;28;20031;-67
2022/12/18 12:49:04;;;;;;;18.93;11.77;;;1.20;99.90;;;;;;5097638;28;20399;-67
2022/12/18 12:51:36;;;;;;;18.02;11.45;;;1.00;99.90;;;;;;5097166;28;20688;-67
2022/12/18 12:54:06;;;;;;;17.40;11.38;;;1.10;99.90;;;;;;5097043;28;20028;-66
2022/12/18 12:56:54;;;;;;;18.35;11.80;;;1.10;99.90;;;;;;5097155;28;20031;-67
2022/12/18 12:59:51;;;;;;;21.27;11.55;;;1.30;99.90;;;;;;5096389;28;20373;-67